Time;durP1;ratioP1;P1;durP2;ratioP2;P2;SDS_P1;SDS_P2;PMS_P1;PMS_P2;Temp;Humidity;BMP_temperature;BMP_pressure;BME280_temperature;BME280_humidity;BME280_pressure;Samples;Min_cycle;Max_cycle;Signal;HPM_P1;HPM_P2
2022/06/03 00:00:43;;;;;;;10.10;9.00;;;;;;;11.31;94.67;99559.74;105192;1271;62092;-74
2022/06/03 00:03:24;;;;;;;11.40;9.60;;;;;;;11.29;95.03;99563.27;105207;1271;75977;-72
2022/06/03 00:06:18;;;;;;;10.20;9.40;;;;;;;11.26;95.56;99563.62;105133;1270;69247;-72
2022/06/03 00:09:02;;;;;;;11.60;9.20;;;;;;;11.20;95.51;99567.14;105162;1271;74319;-71
2022/06/03 00:11:47;;;;;;;10.20;9.00;;;;;;;11.16;95.35;99566.70;104991;1271;62209;-71
2022/06/03 00:14:45;;;;;;;10.60;9.50;;;;;;;11.12;95.59;99569.98;105180;1271;62505;-72
2022/06/03 00:17:27;;;;;;;13.30;9.40;;;;;;;11.06;96.24;99568.75;105187;1271;77373;-72
2022/06/03 00:20:12;;;;;;;12.40;9.60;;;;;;;11.00;96.94;99566.45;105185;1271;69463;-72
2022/06/03 00:22:57;;;;;;;10.00;8.50;;;;;;;10.95;97.21;99562.95;105210;1270;74316;-72
2022/06/03 00:25:32;;;;;;;10.20;8.80;;;;;;;10.92;97.29;99558.02;105173;1271;62114;-72
2022/06/03 00:28:12;;;;;;;9.10;8.10;;;;;;;10.88;97.96;99554.52;105195;1271;62039;-71
2022/06/03 00:31:05;;;;;;;11.70;9.30;;;;;;;10.84;98.54;99553.84;105246;1268;77196;-72
2022/06/03 00:33:40;;;;;;;11.20;9.10;;;;;;;10.80;99.01;99552.66;105040;1268;70132;-72
2022/06/03 00:36:36;;;;;;;15.50;9.40;;;;;;;10.74;99.05;99551.96;105167;1268;73368;-71
2022/06/03 00:39:23;;;;;;;13.70;9.80;;;;;;;10.68;98.83;99549.98;104611;1276;62291;-72
2022/06/03 00:42:21;;;;;;;13.70;9.60;;;;;;;10.63;99.16;99549.23;104603;1276;62092;-72
2022/06/03 00:45:08;;;;;;;12.10;10.00;;;;;;;10.59;99.80;99549.09;104256;1276;449802;-72
2022/06/03 00:47:53;;;;;;;11.40;10.00;;;;;;;10.55;100.00;99548.09;104577;1276;70597;-71
2022/06/03 00:50:25;;;;;;;11.00;9.60;;;;;;;10.53;100.00;99549.10;104515;1277;73443;-72
2022/06/03 00:53:07;;;;;;;12.60;9.50;;;;;;;10.51;100.00;99544.93;104596;1276;62136;-72
2022/06/03 00:56:11;;;;;;;10.40;9.40;;;;;;;10.50;100.00;99543.24;104601;1276;61981;-72
2022/06/03 00:59:25;;;;;;;12.40;9.20;;;;;;;10.44;100.00;99537.87;104453;1277;75965;-73
2022/06/03 01:02:33;;;;;;;10.60;9.50;;;;;;;10.37;100.00;99543.27;104279;1282;69579;-73
2022/06/03 01:05:03;;;;;;;12.40;10.10;;;;;;;10.30;100.00;99544.91;103676;1287;74245;-72
2022/06/03 01:07:32;;;;;;;11.70;10.50;;;;;;;10.24;100.00;99547.69;103690;1287;62307;-72
2022/06/03 01:10:20;;;;;;;11.40;10.20;;;;;;;10.18;100.00;99545.05;103728;1287;62406;-71
2022/06/03 01:13:12;;;;;;;13.40;10.20;;;;;;;10.11;100.00;99548.95;103689;1287;77118;-71
2022/06/03 01:15:43;;;;;;;11.00;9.80;;;;;;;10.04;100.00;99553.09;103690;1286;69620;-72
2022/06/03 01:18:36;;;;;;;12.40;11.10;;;;;;;10.00;100.00;99554.90;104037;1282;73475;-71
2022/06/03 01:21:06;;;;;;;14.20;11.20;;;;;;;9.97;100.00;99553.11;103980;1282;62195;-71
2022/06/03 01:23:54;;;;;;;17.20;11.50;;;;;;;9.95;100.00;99556.80;103991;1282;62134;-72
2022/06/03 01:26:29;;;;;;;16.20;11.70;;;;;;;9.92;100.00;99553.05;103959;1282;76324;-73
2022/06/03 01:29:09;;;;;;;13.20;11.40;;;;;;;9.89;100.00;99552.31;103985;1282;70409;-74
2022/06/03 01:32:01;;;;;;;13.20;11.20;;;;;;;9.85;100.00;99548.97;103971;1282;72492;-73
2022/06/03 01:34:52;;;;;;;13.10;11.70;;;;;;;9.82;100.00;99547.71;103839;1283;62402;-72
2022/06/03 01:37:33;;;;;;;13.80;11.00;;;;;;;9.80;100.00;99549.09;103780;1282;62169;-71
2022/06/03 01:40:33;;;;;;;14.30;11.50;;;;;;;9.78;100.00;99548.29;104716;1277;76146;-72
2022/06/03 01:43:30;;;;;;;12.50;11.30;;;;;;;9.78;100.00;99546.36;104983;1270;67761;-71
2022/06/03 01:46:24;;;;;;;14.40;11.40;;;;;;;9.77;100.00;99546.92;105179;1268;73269;-73
2022/06/03 01:48:56;;;;;;;14.00;11.00;;;;;;;9.76;100.00;99547.53;105229;1268;62110;-72
2022/06/03 01:51:42;;;;;;;12.20;11.00;;;;;;;9.74;100.00;99552.64;105215;1268;62103;-72
2022/06/03 01:54:33;;;;;;;11.90;10.40;;;;;;;9.72;100.00;99546.86;105208;1268;75966;-72
2022/06/03 01:57:22;;;;;;;11.30;10.10;;;;;;;9.72;100.00;99544.59;105208;1267;69804;-72
2022/06/03 02:00:36;;;;;;;11.70;10.00;;;;;;;9.70;100.00;99548.58;105059;1268;73664;-72
2022/06/03 02:03:17;;;;;;;11.60;10.40;;;;;;;9.66;100.00;99549.66;104815;1277;62284;-72
2022/06/03 02:06:06;;;;;;;14.00;10.90;;;;;;;9.62;100.00;99552.90;104764;1277;62362;-72
2022/06/03 02:08:36;;;;;;;13.00;11.70;;;;;;;9.58;100.00;99557.40;104744;1277;76073;-71
2022/06/03 02:11:05;;;;;;;15.10;12.40;;;;;;;9.54;100.00;99562.20;104744;1277;69679;-72
2022/06/03 02:13:50;;;;;;;13.60;12.30;;;;;;;9.50;100.00;99564.73;104762;1277;74498;-73
2022/06/03 02:16:38;;;;;;;12.80;11.50;;;;;;;9.47;100.00;99567.20;104828;1276;62190;-72
2022/06/03 02:19:42;;;;;;;12.90;11.50;;;;;;;9.43;100.00;99570.58;104792;1277;62127;-72
2022/06/03 02:22:33;;;;;;;12.80;11.50;;;;;;;9.37;100.00;99567.89;104798;1277;76963;-73
2022/06/03 02:25:27;;;;;;;13.90;12.50;;;;;;;9.32;100.00;99565.35;104770;1277;69893;-73
2022/06/03 02:28:06;;;;;;;13.80;12.40;;;;;;;9.28;100.00;99571.02;104779;1277;73219;-72
2022/06/03 02:30:33;;;;;;;13.40;12.10;;;;;;;9.28;100.00;99570.70;104740;1277;62095;-72
2022/06/03 02:33:25;;;;;;;15.60;12.20;;;;;;;9.30;100.00;99572.52;104750;1277;62066;-74
2022/06/03 02:36:29;;;;;;;13.60;12.40;;;;;;;9.34;100.00;99573.53;103952;1284;77591;-71
2022/06/03 02:38:58;;;;;;;13.80;12.40;;;;;;;9.37;100.00;99573.76;104029;1280;69566;-72
2022/06/03 02:41:43;;;;;;;12.60;11.20;;;;;;;9.37;100.00;99577.45;104390;1279;74114;-73
2022/06/03 02:44:30;;;;;;;14.00;12.30;;;;;;;9.38;100.00;99576.19;104399;1279;62127;-72
2022/06/03 02:47:51;;;;;;;13.00;11.50;;;;;;;9.35;100.00;99571.01;104471;1279;62258;-72
2022/06/03 02:50:29;;;;;;;14.80;12.90;;;;;;;9.34;100.00;99573.55;103844;1285;77145;-71
2022/06/03 02:52:58;;;;;;;18.00;15.20;;;;;;;9.36;100.00;99575.73;103846;1285;68500;-73
2022/06/03 02:55:40;;;;;;;21.10;15.60;;;;;;;9.39;100.00;99579.30;103809;1285;73584;-72
2022/06/03 02:58:28;;;;;;;21.10;15.80;;;;;;;9.42;100.00;99578.42;103795;1285;62237;-72
2022/06/03 03:01:25;;;;;;;16.30;14.70;;;;;;;9.49;100.00;99581.14;103807;1285;62225;-71
2022/06/03 03:04:18;;;;;;;16.00;14.10;;;;;;;9.55;100.00;99578.27;103819;1285;76230;-71
2022/06/03 03:07:07;;;;;;;14.70;13.00;;;;;;;9.62;100.00;99581.48;103806;1285;70480;-71
2022/06/03 03:09:36;;;;;;;14.40;12.40;;;;;;;9.66;100.00;99581.04;103809;1285;74843;-71
2022/06/03 03:12:36;;;;;;;14.50;13.00;;;;;;;9.72;100.00;99582.38;103840;1285;62193;-70
2022/06/03 03:15:24;;;;;;;15.80;12.40;;;;;;;9.76;100.00;99578.04;104430;1279;62222;-72
2022/06/03 03:18:00;;;;;;;13.40;12.10;;;;;;;9.81;100.00;99576.52;104416;1279;75251;-72
2022/06/03 03:20:29;;;;;;;14.90;12.60;;;;;;;9.86;100.00;99574.46;104403;1279;69459;-72
2022/06/03 03:23:11;;;;;;;14.00;12.50;;;;;;;9.98;100.00;99575.92;104385;1279;73441;-73
2022/06/03 03:25:53;;;;;;;13.20;11.20;;;;;;;10.88;100.00;99572.64;104496;1271;62129;-72
2022/06/03 03:28:30;;;;;;;10.90;9.90;;;;;;;12.05;100.00;99574.77;105192;1270;62164;-72
2022/06/03 03:31:28;;;;;;;10.50;9.10;;;;;;;12.92;100.00;99572.96;105184;1271;76141;-73
2022/06/03 03:34:08;;;;;;;9.90;8.90;;;;;;;13.82;99.73;99563.42;105212;1271;69193;-72
2022/06/03 03:36:49;;;;;;;;;;;;;;;14.62;96.02;99562.97;105242;1271;72992;-73
2022/06/03 03:40:00;;;;;;;11.50;10.00;;;;;;;15.41;92.21;99560.01;105188;1271;62523;-72
2022/06/03 03:42:36;;;;;;;12.10;11.00;;;;;;;16.37;88.41;99561.10;105209;1270;62402;-72
2022/06/03 03:45:05;;;;;;;11.10;10.10;;;;;;;17.19;85.38;99558.45;105201;1271;76007;-71
2022/06/03 03:48:00;;;;;;;11.00;10.00;;;;;;;17.81;82.13;99560.64;105225;1271;70224;-72
2022/06/03 03:50:55;;;;;;;10.00;9.00;;;;;;;18.51;79.48;99564.46;105241;1269;74673;-72
2022/06/03 03:54:11;;;;;;;11.10;9.80;;;;;;;19.21;77.10;99566.16;105201;1271;62136;-72
2022/06/03 03:56:41;;;;;;;9.70;8.80;;;;;;;19.94;73.83;99565.83;105233;1271;62092;-73
2022/06/03 03:59:19;;;;;;;9.90;9.00;;;;;;;20.44;71.69;99564.77;105243;1271;77450;-71
2022/06/03 04:02:27;;;;;;;9.40;8.40;;;;;;;20.85;69.49;99565.39;105178;1271;70238;-73
2022/06/03 04:05:15;;;;;;;9.70;8.90;;;;;;;21.28;67.40;99565.19;105190;1271;74521;-73
2022/06/03 04:08:00;;;;;;;9.30;8.50;;;;;;;21.76;65.85;99568.79;105218;1271;62168;-71
2022/06/03 04:10:52;;;;;;;9.00;8.10;;;;;;;22.11;64.02;99567.06;105227;1271;61947;-73
2022/06/03 04:13:27;;;;;;;7.60;6.90;;;;;;;22.41;62.58;99567.37;105213;1269;75082;-71
2022/06/03 04:16:16;;;;;;;8.50;7.80;;;;;;;22.68;61.45;99566.39;105213;1269;69372;-71
2022/06/03 04:19:14;;;;;;;7.70;7.10;;;;;;;22.78;60.40;99564.95;105198;1271;73335;-71
2022/06/03 04:22:05;;;;;;;8.10;7.30;;;;;;;23.05;59.13;99570.92;105196;1271;61992;-71
2022/06/03 04:24:57;;;;;;;8.20;7.50;;;;;;;23.26;58.15;99569.03;105197;1271;62195;-72
2022/06/03 04:27:58;;;;;;;8.70;8.10;;;;;;;23.62;56.72;99569.59;105220;1271;77202;-72
2022/06/03 04:30:51;;;;;;;8.60;7.60;;;;;;;23.73;55.79;99568.27;105291;1268;69261;-72
2022/06/03 04:33:52;;;;;;;8.60;7.90;;;;;;;23.90;55.05;99568.32;105153;1268;73544;-71
2022/06/03 04:37:03;;;;;;;7.20;6.60;;;;;;;24.19;53.68;99570.80;104820;1277;63756;-71
2022/06/03 04:39:52;;;;;;;7.30;6.70;;;;;;;24.47;53.35;99575.10;104858;1277;61979;-72
2022/06/03 04:42:43;;;;;;;8.00;7.30;;;;;;;24.74;52.52;99573.59;104817;1277;77077;-70
2022/06/03 04:45:28;;;;;;;7.40;6.80;;;;;;;24.97;51.17;99573.45;104826;1277;68647;-72
2022/06/03 04:47:57;;;;;;;7.00;6.40;;;;;;;25.15;50.49;99572.40;104803;1277;73590;-73
2022/06/03 04:50:57;;;;;;;7.50;6.70;;;;;;;25.42;50.22;99569.77;104834;1277;62270;-72
2022/06/03 04:54:01;;;;;;;6.10;5.60;;;;;;;25.77;48.97;99573.63;104787;1277;62120;-73
2022/06/03 04:56:55;;;;;;;6.70;6.20;;;;;;;25.82;47.69;99574.32;104783;1277;75923;-74
2022/06/03 05:00:00;;;;;;;6.20;5.70;;;;;;;25.85;46.01;99574.95;104726;1277;69683;-73
2022/06/03 05:02:44;;;;;;;5.80;5.30;;;;;;;25.79;44.80;99576.88;104785;1277;74416;-72
2022/06/03 05:05:16;;;;;;;6.90;6.30;;;;;;;25.74;44.58;99580.91;104754;1277;62503;-72
2022/06/03 05:08:34;;;;;;;6.10;5.40;;;;;;;25.88;44.51;99580.96;104785;1277;62285;-71
2022/06/03 05:11:27;;;;;;;6.30;5.80;;;;;;;25.92;43.11;99583.35;104380;1283;75426;-72
2022/06/03 05:14:05;;;;;;;6.40;5.80;;;;;;;25.83;43.02;99582.27;103833;1284;69259;-73
2022/06/03 05:16:44;;;;;;;6.30;5.80;;;;;;;25.82;42.77;99582.98;103836;1284;72464;-74
2022/06/03 05:19:32;;;;;;;6.90;5.70;;;;;;;25.80;42.61;99583.73;104114;1284;62117;-74
2022/06/03 05:22:30;;;;;;;6.40;5.80;;;;;;;25.90;42.35;99584.58;104106;1284;62087;-74
2022/06/03 05:25:21;;;;;;;6.40;5.80;;;;;;;25.80;41.66;99583.45;103901;1284;75954;-73
2022/06/03 05:28:03;;;;;;;8.20;6.20;;;;;;;25.67;41.69;99588.15;103929;1284;70220;-72
2022/06/03 05:30:50;;;;;;;6.60;5.90;;;;;;;25.74;41.84;99590.91;103958;1284;73660;-71
2022/06/03 05:33:19;;;;;;;7.60;5.90;;;;;;;25.84;41.66;99595.92;103964;1284;62110;-72
2022/06/03 05:36:15;;;;;;;6.50;5.90;;;;;;;25.86;41.42;99594.14;104031;1284;62192;-71
2022/06/03 05:39:20;;;;;;;6.20;5.60;;;;;;;25.89;41.28;99587.08;103352;1290;76049;-71
2022/06/03 05:42:23;;;;;;;6.00;5.50;;;;;;;26.02;41.03;99583.09;103439;1290;69575;-72
2022/06/03 05:45:28;;;;;;;6.50;5.90;;;;;;;26.12;40.99;99579.98;103361;1290;73469;-73
2022/06/03 05:48:14;;;;;;;6.20;5.60;;;;;;;26.21;40.64;99577.55;103511;1285;62346;-72
2022/06/03 05:50:56;;;;;;;5.70;5.00;;;;;;;26.17;40.15;99577.38;103953;1279;62609;-72
2022/06/03 05:53:32;;;;;;;6.10;5.50;;;;;;;26.08;40.14;99575.96;104444;1279;76998;-70
2022/06/03 05:56:33;;;;;;;6.10;5.50;;;;;;;26.05;40.47;99573.53;104476;1279;69843;-74
2022/06/03 05:59:12;;;;;;;6.30;5.50;;;;;;;26.18;40.49;99569.35;104565;1279;73183;-72
2022/06/03 06:01:44;;;;;;;5.10;4.40;;;;;;;26.23;39.93;99570.19;104471;1279;62088;-72
2022/06/03 06:04:27;;;;;;;4.40;4.10;;;;;;;26.15;39.00;99568.17;104406;1279;62147;-72
2022/06/03 06:07:18;;;;;;;5.50;4.20;;;;;;;25.91;38.38;99574.73;104353;1281;77184;-72
2022/06/03 06:10:15;;;;;;;4.20;3.60;;;;;;;25.74;38.86;99580.74;104480;1279;66509;-72
2022/06/03 06:12:46;;;;;;;5.70;4.90;;;;;;;25.70;38.66;99578.03;104407;1279;73519;-73
2022/06/03 06:15:46;;;;;;;6.00;3.90;;;;;;;25.68;39.14;99578.45;104647;1271;62174;-73
2022/06/03 06:18:40;;;;;;;5.90;3.70;;;;;;;25.97;39.66;99571.79;105081;1270;62094;-72
2022/06/03 06:21:13;;;;;;;5.50;3.60;;;;;;;26.16;39.14;99567.98;105082;1270;76261;-72
2022/06/03 06:23:58;;;;;;;4.60;3.60;;;;;;;26.22;39.13;99569.25;105209;1271;69026;-71
2022/06/03 06:26:46;;;;;;;3.90;3.40;;;;;;;26.30;38.81;99570.67;105189;1271;73640;-71
2022/06/03 06:29:27;;;;;;;5.40;3.50;;;;;;;26.44;39.18;99572.61;104971;1271;62233;-72
2022/06/03 06:32:25;;;;;;;5.70;3.10;;;;;;;26.51;38.52;99573.12;105189;1269;62387;-72
2022/06/03 06:35:29;;;;;;;5.30;3.60;;;;;;;26.42;38.41;99567.52;105235;1271;76196;-72
2022/06/03 06:38:19;;;;;;;4.10;3.30;;;;;;;26.30;37.73;99567.32;105212;1271;69498;-73
2022/06/03 06:41:00;;;;;;;;;;;;;;;26.13;38.09;99567.01;105243;1271;73182;-73
2022/06/03 06:43:48;;;;;;;3.40;3.10;;;;;;;26.12;38.52;99567.50;105206;1271;62067;-74
2022/06/03 06:46:44;;;;;;;3.70;2.80;;;;;;;26.29;38.68;99569.66;105178;1271;61964;-74
2022/06/03 06:49:16;;;;;;;4.00;2.60;;;;;;;26.33;36.98;99567.05;104900;1273;76083;-72
2022/06/03 06:51:42;;;;;;;3.10;2.70;;;;;;;25.96;37.07;99569.05;104952;1274;70401;-73
2022/06/03 06:54:15;;;;;;;2.30;2.10;;;;;;;25.77;37.20;99570.59;104916;1274;62168;-72
2022/06/03 06:56:55;;;;;;;2.70;2.40;;;;;;;25.68;37.68;99561.67;104878;1274;62267;-72
2022/06/03 06:59:30;;;;;;;3.20;2.80;;;;;;;25.67;37.66;99562.88;104915;1274;62084;-72
2022/06/03 07:02:18;;;;;;;2.50;2.30;;;;;;;25.62;37.67;99558.92;104913;1274;76380;-72
2022/06/03 07:04:53;;;;;;;2.30;2.10;;;;;;;25.58;37.48;99559.93;104929;1274;69493;-73
2022/06/03 07:07:34;;;;;;;3.70;2.30;;;;;;;25.45;37.14;99556.27;104738;1274;73576;-71
2022/06/03 07:10:09;;;;;;;3.10;2.70;;;;;;;25.27;37.66;99558.98;104621;1274;62174;-71
2022/06/03 07:12:48;;;;;;;5.80;2.80;;;;;;;25.12;37.98;99561.34;104988;1274;62170;-74
2022/06/03 07:15:25;;;;;;;2.50;2.40;;;;;;;25.02;38.42;99555.36;104954;1274;76039;-72
2022/06/03 07:21:59;;;;;;;3.00;2.30;;;;;;;24.90;38.78;99559.22;104972;1274;73325;-72
2022/06/03 07:24:58;;;;;;;4.20;2.70;;;;;;;24.71;38.77;99557.05;104948;1274;62248;-74
2022/06/03 07:27:35;;;;;;;2.90;2.50;;;;;;;24.47;39.83;99558.38;105159;1271;62165;-72
2022/06/03 07:30:12;;;;;;;2.60;2.40;;;;;;;23.99;39.93;99557.40;105224;1268;76405;-73
2022/06/03 07:32:47;;;;;;;3.70;2.80;;;;;;;23.50;40.35;99560.71;105161;1268;70311;-73
2022/06/03 07:35:46;;;;;;;3.80;2.80;;;;;;;23.15;41.14;99557.67;105207;1268;74056;-72
2022/06/03 07:38:37;;;;;;;2.40;2.20;;;;;;;22.97;41.45;99557.69;104836;1277;62162;-74
2022/06/03 07:41:06;;;;;;;2.80;2.50;;;;;;;22.86;42.11;99554.95;104732;1277;62289;-72
2022/06/03 07:43:40;;;;;;;4.00;2.90;;;;;;;22.90;43.09;99548.33;104762;1277;75211;-74
2022/06/03 07:46:16;;;;;;;3.70;3.20;;;;;;;23.04;43.71;99550.56;104771;1275;70456;-72
2022/06/03 07:48:43;;;;;;;3.00;2.30;;;;;;;23.16;43.41;99546.67;104479;1277;73144;-73
2022/06/03 07:51:15;;;;;;;3.80;2.90;;;;;;;23.12;42.65;99548.05;104954;1277;62368;-72
2022/06/03 07:53:44;;;;;;;3.70;3.40;;;;;;;22.89;43.12;99543.30;104548;1277;62206;-72
2022/06/03 07:56:11;;;;;;;2.80;2.60;;;;;;;22.86;43.39;99539.14;104806;1276;75002;-72
2022/06/03 07:58:38;;;;;;;3.00;2.70;;;;;;;22.86;43.59;99541.24;104953;1276;69582;-72
2022/06/03 08:01:06;;;;;;;3.10;2.80;;;;;;;22.84;43.11;99537.88;104817;1277;73371;-72
2022/06/03 08:03:37;;;;;;;3.10;2.80;;;;;;;22.75;43.55;99539.04;104820;1277;62084;-73
2022/06/03 08:06:07;;;;;;;3.20;2.90;;;;;;;22.77;44.14;99536.82;105065;1276;62098;-72
2022/06/03 08:11:31;;;;;;;3.40;3.00;;;;;;;22.91;44.56;99536.54;104776;1277;69518;-72
2022/06/03 08:14:00;;;;;;;3.50;2.70;;;;;;;22.93;43.97;99533.48;104852;1277;74223;-73
2022/06/03 08:16:34;;;;;;;3.70;3.30;;;;;;;22.83;43.86;99530.51;105255;1268;62190;-73
2022/06/03 08:19:25;;;;;;;4.10;3.70;;;;;;;22.74;44.08;99538.17;105229;1268;62203;-74
2022/06/03 08:21:56;;;;;;;3.60;3.00;;;;;;;22.67;44.10;99533.41;105202;1268;75945;-72
2022/06/03 08:24:27;;;;;;;4.00;2.90;;;;;;;22.70;44.75;99531.41;105193;1268;70101;-72
2022/06/03 08:26:58;;;;;;;5.10;3.10;;;;;;;22.82;45.07;99528.43;105307;1268;73171;-73
2022/06/03 08:29:44;;;;;;;3.10;2.90;;;;;;;23.02;45.17;99527.01;105217;1268;62120;-73
2022/06/03 08:32:19;;;;;;;3.40;2.90;;;;;;;23.18;44.82;99525.05;105400;1268;62105;-73
2022/06/03 08:34:58;;;;;;;3.40;3.00;;;;;;;23.26;43.96;99522.46;105198;1268;77618;-72
2022/06/03 08:37:48;;;;;;;6.20;3.30;;;;;;;23.26;44.11;99524.96;105245;1267;68636;-72
2022/06/03 08:40:15;;;;;;;;;;;;;;;23.30;43.55;99527.80;105223;1268;74653;-72
2022/06/03 08:42:51;;;;;;;3.10;2.80;;;;;;;23.32;43.76;99526.64;105192;1268;62126;-72
2022/06/03 08:45:26;;;;;;;3.50;2.60;;;;;;;23.38;43.81;99524.68;105233;1267;62130;-71
2022/06/03 08:47:55;;;;;;;3.00;2.60;;;;;;;23.57;44.01;99524.39;105279;1268;77301;-74
2022/06/03 08:50:40;;;;;;;2.20;2.10;;;;;;;23.69;42.40;99523.88;105373;1268;69113;-74
2022/06/03 08:53:32;;;;;;;2.70;2.50;;;;;;;23.72;42.39;99515.98;105274;1268;73329;-74
2022/06/03 08:56:14;;;;;;;4.40;2.70;;;;;;;23.80;41.93;99518.09;104763;1277;62161;-72
2022/06/03 08:58:58;;;;;;;2.80;2.20;;;;;;;23.77;41.71;99516.10;104787;1277;62181;-72
2022/06/03 09:01:25;;;;;;;2.70;1.90;;;;;;;23.81;40.38;99512.34;104805;1277;75998;-73
2022/06/03 09:04:21;;;;;;;2.40;2.20;;;;;;;23.78;40.10;99510.20;104772;1277;62269;-72
2022/06/03 09:07:16;;;;;;;2.80;2.00;;;;;;;23.90;41.11;99501.55;104246;1283;73905;-72
2022/06/03 09:10:07;;;;;;;2.50;2.20;;;;;;;24.07;40.94;99507.88;104237;1283;62225;-72
2022/06/03 09:12:41;;;;;;;2.60;2.10;;;;;;;24.09;40.52;99502.27;104245;1283;62090;-71
2022/06/03 09:15:13;;;;;;;2.00;1.90;;;;;;;24.10;39.93;99499.05;103937;1283;74894;-72
2022/06/03 09:17:42;;;;;;;2.60;2.40;;;;;;;24.12;39.88;99498.17;104298;1281;70505;-73
2022/06/03 09:20:30;;;;;;;2.40;2.20;;;;;;;24.25;40.32;99497.89;104224;1283;74396;-72
2022/06/03 09:23:10;;;;;;;2.70;2.50;;;;;;;24.39;39.89;99492.95;104222;1283;62217;-74
2022/06/03 09:26:00;;;;;;;3.00;2.40;;;;;;;24.35;39.71;99496.40;103991;1282;62129;-71
2022/06/03 09:28:31;;;;;;;2.90;2.30;;;;;;;24.39;40.57;99489.02;104279;1283;76298;-73
2022/06/03 09:31:01;;;;;;;3.50;1.80;;;;;;;24.51;40.18;99490.10;104317;1283;69253;-73
2022/06/03 09:33:30;;;;;;;2.30;2.00;;;;;;;24.57;39.66;99499.80;104262;1276;72464;-72
2022/06/03 09:36:00;;;;;;;3.70;3.40;;;;;;;24.53;39.09;99490.16;104586;1277;62220;-72
2022/06/03 09:38:33;;;;;;;2.70;2.10;;;;;;;24.56;38.89;99497.37;104592;1276;62082;-72
2022/06/03 09:41:00;;;;;;;2.30;2.10;;;;;;;24.70;38.94;99491.00;104612;1276;77454;-72
2022/06/03 09:43:35;;;;;;;1.80;1.70;;;;;;;24.79;38.15;99491.06;104647;1274;70550;-70
2022/06/03 09:46:05;;;;;;;2.50;2.00;;;;;;;24.86;38.32;99487.08;105327;1271;73331;-73
2022/06/03 09:48:36;;;;;;;;;;;;;;;24.92;36.95;99489.52;105249;1270;62127;-74
2022/06/03 09:54:19;;;;;;;4.70;2.10;;;;;;;24.69;37.08;99487.73;105549;1271;77017;-77
2022/06/03 09:56:50;;;;;;;2.00;1.80;;;;;;;24.70;37.16;99487.55;105361;1271;70800;-76
2022/06/03 09:59:20;;;;;;;2.20;1.60;;;;;;;24.75;37.07;99483.29;105034;1270;73243;-76
2022/06/03 10:01:47;;;;;;;;;;;;;;;24.85;37.62;99484.47;105329;1271;62073;-76
2022/06/03 10:04:15;;;;;;;1.70;1.60;;;;;;;24.94;37.72;99482.28;105284;1271;62107;-76
2022/06/03 10:06:50;;;;;;;1.90;1.80;;;;;;;25.01;36.42;99486.12;105273;1271;75184;-78
2022/06/03 10:12:56;;;;;;;2.40;2.20;;;;;;;24.97;36.87;99480.15;105228;1271;74137;-76
2022/06/03 10:17:57;;;;;;;2.30;1.70;;;;;;;25.20;36.77;99470.94;105212;1270;62076;-77
2022/06/03 10:20:25;;;;;;;2.80;2.60;;;;;;;25.25;36.09;99472.86;105180;1268;76129;-78
2022/06/03 10:22:52;;;;;;;3.90;1.70;;;;;;;25.24;35.97;99470.79;105203;1271;69440;-75
2022/06/03 10:25:19;;;;;;;2.50;1.70;;;;;;;25.16;35.75;99471.16;105212;1271;62755;-75
2022/06/03 10:27:46;;;;;;;2.10;1.90;;;;;;;25.13;35.89;99465.92;105205;1271;62096;-77
2022/06/03 10:30:14;;;;;;;1.70;1.60;;;;;;;25.20;35.98;99463.51;105241;1268;62445;-76
2022/06/03 10:32:50;;;;;;;1.80;1.70;;;;;;;25.15;35.51;99464.22;105020;1268;76120;-78
2022/06/03 10:35:18;;;;;;;2.40;1.70;;;;;;;25.08;35.30;99456.90;105333;1268;70795;-77
2022/06/03 10:37:54;;;;;;;1.80;1.70;;;;;;;25.07;35.58;99452.79;105315;1268;74493;-75
2022/06/03 10:40:24;;;;;;;2.10;1.90;;;;;;;25.09;35.36;99448.91;105493;1268;62099;-77
2022/06/03 10:42:55;;;;;;;2.10;1.90;;;;;;;25.09;35.05;99452.35;105387;1268;62040;-78
2022/06/03 10:45:27;;;;;;;2.00;1.80;;;;;;;25.02;34.77;99448.98;105299;1268;73651;-76
2022/06/03 10:47:54;;;;;;;1.80;1.70;;;;;;;25.03;35.74;99448.90;105380;1268;70008;-76
2022/06/03 10:50:26;;;;;;;2.90;1.90;;;;;;;25.16;35.93;99446.85;105291;1268;74257;-76
2022/06/03 11:02:00;;;;;;;2.20;1.70;;;;;;;25.57;35.53;99430.22;104542;1277;70771;-75
2022/06/03 11:04:30;;;;;;;2.00;1.80;;;;;;;25.47;35.00;99430.16;104887;1277;72755;-79
2022/06/03 11:07:01;;;;;;;2.40;2.10;;;;;;;25.48;35.93;99426.58;104864;1277;62174;-75
2022/06/03 11:09:29;;;;;;;2.00;1.80;;;;;;;25.60;35.87;99424.14;104906;1277;62151;-75
2022/06/03 11:12:05;;;;;;;3.30;1.70;;;;;;;25.63;35.02;99422.48;104966;1277;76073;-80
2022/06/03 11:14:41;;;;;;;2.10;1.70;;;;;;;25.66;35.03;99423.21;104550;1277;69404;-76
2022/06/03 11:17:33;;;;;;;3.20;1.80;;;;;;;25.69;34.88;99420.47;104769;1276;74620;-74
2022/06/03 11:20:00;;;;;;;3.10;1.70;;;;;;;25.66;34.10;99422.49;104666;1276;62194;-74
2022/06/03 11:22:29;;;;;;;4.20;2.60;;;;;;;25.62;34.99;99424.27;104782;1276;62241;-70
2022/06/03 11:24:59;;;;;;;1.50;1.40;;;;;;;25.77;35.36;99417.89;104733;1276;76918;-77
2022/06/03 11:27:32;;;;;;;1.60;1.40;;;;;;;25.85;34.88;99416.71;104761;1276;68788;-73
2022/06/03 11:30:05;;;;;;;1.90;1.70;;;;;;;25.98;35.75;99420.58;104573;1277;72178;-75
2022/06/03 11:32:35;;;;;;;3.40;1.80;;;;;;;26.04;34.56;99417.75;104493;1274;62090;-75
2022/06/03 11:35:06;;;;;;;3.10;1.60;;;;;;;26.00;34.68;99418.50;105245;1271;61999;-73
2022/06/03 11:37:38;;;;;;;1.80;1.70;;;;;;;26.05;35.18;99414.39;105183;1271;76220;-75
2022/06/03 11:40:05;;;;;;;1.60;1.50;;;;;;;26.07;34.31;99416.86;104887;1272;68531;-75
2022/06/03 11:42:43;;;;;;;2.00;1.60;;;;;;;26.04;33.85;99410.94;105201;1271;73701;-75
2022/06/03 11:45:15;;;;;;;2.40;2.00;;;;;;;26.01;33.58;99402.20;105199;1271;62120;-74
2022/06/03 11:47:49;;;;;;;2.10;1.80;;;;;;;25.87;33.35;99399.17;104982;1274;62161;-73
2022/06/03 11:50:19;;;;;;;2.50;1.50;;;;;;;25.86;34.35;99394.38;105195;1271;77006;-75
2022/06/03 11:52:49;;;;;;;2.40;1.70;;;;;;;25.99;34.95;99391.05;105244;1270;69595;-75
2022/06/03 11:55:18;;;;;;;2.40;2.10;;;;;;;26.16;35.38;99384.85;105020;1271;74497;-73
2022/06/03 11:58:04;;;;;;;3.70;2.10;;;;;;;26.27;35.14;99384.08;105194;1271;62142;-75
2022/06/03 12:00:37;;;;;;;3.00;2.50;;;;;;;26.29;33.95;99376.11;105188;1271;62777;-75
2022/06/03 12:03:23;;;;;;;2.20;2.00;;;;;;;26.23;34.03;99371.52;105185;1271;76332;-75
2022/06/03 12:05:57;;;;;;;2.00;1.80;;;;;;;26.19;33.81;99377.98;105171;1271;66522;-74
2022/06/03 12:08:33;;;;;;;3.80;2.00;;;;;;;26.22;34.07;99372.80;105164;1271;74678;-74
2022/06/03 12:11:09;;;;;;;2.40;2.20;;;;;;;26.25;33.82;99361.81;104955;1271;62110;-74
2022/06/03 12:13:36;;;;;;;1.80;1.70;;;;;;;26.17;33.26;99356.79;105239;1271;62203;-74
2022/06/03 12:16:11;;;;;;;2.60;2.00;;;;;;;26.10;33.07;99354.40;105206;1271;77119;-73
2022/06/03 12:19:03;;;;;;;2.90;1.90;;;;;;;26.02;33.06;99351.72;105234;1271;70696;-73
2022/06/03 12:21:30;;;;;;;1.80;1.60;;;;;;;26.02;33.74;99348.45;104522;1278;73430;-74
2022/06/03 12:24:32;;;;;;;2.20;2.00;;;;;;;26.18;33.95;99335.69;104454;1279;62212;-75
2022/06/03 12:27:04;;;;;;;3.40;1.80;;;;;;;26.42;33.86;99333.89;104486;1279;62256;-73
2022/06/03 12:29:41;;;;;;;2.00;1.90;;;;;;;26.59;33.22;99341.27;104487;1281;75163;-74
2022/06/03 12:32:13;;;;;;;1.90;1.70;;;;;;;26.59;33.30;99338.23;104304;1280;69197;-74
2022/06/03 12:34:40;;;;;;;2.00;1.80;;;;;;;26.63;33.39;99336.38;104463;1278;74476;-74
2022/06/03 12:37:22;;;;;;;2.50;1.60;;;;;;;26.70;32.93;99333.83;104465;1278;62250;-75
2022/06/03 12:40:21;;;;;;;1.90;1.40;;;;;;;26.84;32.99;99326.30;104513;1278;62146;-75
2022/06/03 12:42:47;;;;;;;2.00;1.80;;;;;;;27.04;33.18;99321.77;104495;1279;77006;-74
2022/06/03 12:45:29;;;;;;;2.30;2.10;;;;;;;27.15;33.43;99317.41;104309;1278;259208;-76
2022/06/03 12:47:56;;;;;;;3.20;2.60;;;;;;;27.30;32.81;99317.40;104459;1279;73304;-76
2022/06/03 12:50:37;;;;;;;1.80;1.70;;;;;;;27.40;32.87;99310.86;104559;1279;62370;-76
2022/06/03 12:53:06;;;;;;;2.30;1.90;;;;;;;27.58;33.34;99308.92;104451;1278;61926;-74